sensor_id;sensor_type;location;lat;lon;timestamp;temperature;humidity
24560;DHT22;12727;49.934;8.656;2023-03-01T00:01:48;-0.70;99.90
24560;DHT22;12727;49.934;8.656;2023-03-01T00:04:13;-0.70;99.90
24560;DHT22;12727;49.934;8.656;2023-03-01T00:06:39;-0.60;99.90
24560;DHT22;12727;49.934;8.656;2023-03-01T00:09:05;-0.70;99.90
24560;DHT22;12727;49.934;8.656;2023-03-01T00:11:31;-0.90;99.90
24560;DHT22;12727;49.934;8.656;2023-03-01T00:13:59;-1.00;99.90
24560;DHT22;12727;49.934;8.656;2023-03-01T00:16:31;-1.10;99.90
24560;DHT22;12727;49.934;8.656;2023-03-01T00:18:59;-1.10;99.90
24560;DHT22;12727;49.934;8.656;2023-03-01T00:21:26;-1.10;99.90
24560;DHT22;12727;49.934;8.656;2023-03-01T00:23:52;-1.10;99.90
24560;DHT22;12727;49.934;8.656;2023-03-01T00:26:19;-1.10;99.90
24560;DHT22;12727;49.934;8.656;2023-03-01T00:28:45;-1.20;99.90
24560;DHT22;12727;49.934;8.656;2023-03-01T00:31:13;-1.20;99.90
24560;DHT22;12727;49.934;8.656;2023-03-01T00:33:40;-1.30;99.90
24560;DHT22;12727;49.934;8.656;2023-03-01T00:36:06;-1.30;99.90
24560;DHT22;12727;49.934;8.656;2023-03-01T00:38:35;-1.20;99.90
24560;DHT22;12727;49.934;8.656;2023-03-01T00:41:06;-1.30;99.90
24560;DHT22;12727;49.934;8.656;2023-03-01T00:43:32;-1.30;99.90
24560;DHT22;12727;49.934;8.656;2023-03-01T00:46:03;-1.40;99.90
24560;DHT22;12727;49.934;8.656;2023-03-01T00:48:29;-1.50;99.90
24560;DHT22;12727;49.934;8.656;2023-03-01T00:50:55;-1.60;99.90
24560;DHT22;12727;49.934;8.656;2023-03-01T00:53:21;-1.70;99.90
24560;DHT22;12727;49.934;8.656;2023-03-01T00:55:46;-1.70;99.90
24560;DHT22;12727;49.934;8.656;2023-03-01T00:58:11;-1.80;99.90
24560;DHT22;12727;49.934;8.656;2023-03-01T01:00:37;-1.80;99.90
24560;DHT22;12727;49.934;8.656;2023-03-01T01:03:02;-1.70;99.90
24560;DHT22;12727;49.934;8.656;2023-03-01T01:05:28;-1.70;99.90
24560;DHT22;12727;49.934;8.656;2023-03-01T01:07:54;-1.70;99.90
24560;DHT22;12727;49.934;8.656;2023-03-01T01:10:19;-1.60;99.90
24560;DHT22;12727;49.934;8.656;2023-03-01T01:12:45;-1.50;99.90
24560;DHT22;12727;49.934;8.656;2023-03-01T01:15:11;-1.40;99.90
24560;DHT22;12727;49.934;8.656;2023-03-01T01:17:39;-1.60;99.90
24560;DHT22;12727;49.934;8.656;2023-03-01T01:20:05;-1.70;99.90
24560;DHT22;12727;49.934;8.656;2023-03-01T01:22:32;-1.80;99.90
24560;DHT22;12727;49.934;8.656;2023-03-01T01:24:58;-1.90;99.90
24560;DHT22;12727;49.934;8.656;2023-03-01T01:27:23;-2.10;99.90
24560;DHT22;12727;49.934;8.656;2023-03-01T01:29:49;-2.20;99.90
24560;DHT22;12727;49.934;8.656;2023-03-01T01:32:15;-2.30;99.90
24560;DHT22;12727;49.934;8.656;2023-03-01T01:34:41;-2.20;99.90
24560;DHT22;12727;49.934;8.656;2023-03-01T01:37:06;-2.20;99.90
24560;DHT22;12727;49.934;8.656;2023-03-01T01:39:34;-2.20;99.90
24560;DHT22;12727;49.934;8.656;2023-03-01T01:42:01;-2.30;99.90
24560;DHT22;12727;49.934;8.656;2023-03-01T01:44:28;-2.30;99.90
24560;DHT22;12727;49.934;8.656;2023-03-01T01:47:13;-2.20;99.90
24560;DHT22;12727;49.934;8.656;2023-03-01T01:49:46;-2.20;99.90
24560;DHT22;12727;49.934;8.656;2023-03-01T01:52:33;-1.90;99.90
24560;DHT22;12727;49.934;8.656;2023-03-01T01:55:10;-1.80;99.90
24560;DHT22;12727;49.934;8.656;2023-03-01T01:57:48;-1.80;99.90
24560;DHT22;12727;49.934;8.656;2023-03-01T02:00:20;-1.70;99.90
24560;DHT22;12727;49.934;8.656;2023-03-01T02:02:48;-1.70;99.90
24560;DHT22;12727;49.934;8.656;2023-03-01T02:05:29;-1.60;99.90
24560;DHT22;12727;49.934;8.656;2023-03-01T02:07:58;-1.70;99.90
24560;DHT22;12727;49.934;8.656;2023-03-01T02:10:24;-1.70;99.90
24560;DHT22;12727;49.934;8.656;2023-03-01T02:12:51;-1.70;99.90
24560;DHT22;12727;49.934;8.656;2023-03-01T02:15:18;-1.80;99.90
24560;DHT22;12727;49.934;8.656;2023-03-01T02:17:43;-1.80;99.90
24560;DHT22;12727;49.934;8.656;2023-03-01T02:20:33;-1.70;99.90
24560;DHT22;12727;49.934;8.656;2023-03-01T02:23:00;-1.70;99.90
24560;DHT22;12727;49.934;8.656;2023-03-01T02:25:40;-1.60;99.90
24560;DHT22;12727;49.934;8.656;2023-03-01T02:30:44;-1.40;99.90
24560;DHT22;12727;49.934;8.656;2023-03-01T02:33:29;-1.30;99.90
24560;DHT22;12727;49.934;8.656;2023-03-01T02:35:59;-1.30;99.90
24560;DHT22;12727;49.934;8.656;2023-03-01T02:38:25;-1.20;99.90
24560;DHT22;12727;49.934;8.656;2023-03-01T02:40:53;-1.20;99.90
24560;DHT22;12727;49.934;8.656;2023-03-01T02:43:21;-1.20;99.90
24560;DHT22;12727;49.934;8.656;2023-03-01T02:45:52;-1.20;99.90
24560;DHT22;12727;49.934;8.656;2023-03-01T02:48:19;-1.20;99.90
24560;DHT22;12727;49.934;8.656;2023-03-01T02:51:13;-1.20;99.90
24560;DHT22;12727;49.934;8.656;2023-03-01T02:54:15;-1.20;99.90
24560;DHT22;12727;49.934;8.656;2023-03-01T02:56:43;-1.00;99.90
24560;DHT22;12727;49.934;8.656;2023-03-01T02:59:09;-1.10;99.90
24560;DHT22;12727;49.934;8.656;2023-03-01T03:01:36;-1.20;99.90
24560;DHT22;12727;49.934;8.656;2023-03-01T03:04:07;-1.20;99.90
24560;DHT22;12727;49.934;8.656;2023-03-01T03:06:33;-1.30;99.90
24560;DHT22;12727;49.934;8.656;2023-03-01T03:08:59;-1.30;99.90
24560;DHT22;12727;49.934;8.656;2023-03-01T03:11:25;-1.30;99.90
24560;DHT22;12727;49.934;8.656;2023-03-01T03:13:51;-1.30;99.90
24560;DHT22;12727;49.934;8.656;2023-03-01T03:16:17;-1.30;99.90
24560;DHT22;12727;49.934;8.656;2023-03-01T03:18:43;-1.40;99.90
24560;DHT22;12727;49.934;8.656;2023-03-01T03:21:10;-1.30;99.90
24560;DHT22;12727;49.934;8.656;2023-03-01T03:23:36;-1.30;99.90
24560;DHT22;12727;49.934;8.656;2023-03-01T03:26:02;-1.40;99.90
24560;DHT22;12727;49.934;8.656;2023-03-01T03:28:33;-1.40;99.90
24560;DHT22;12727;49.934;8.656;2023-03-01T03:30:59;-1.40;99.90
24560;DHT22;12727;49.934;8.656;2023-03-01T03:33:31;-1.40;99.90
24560;DHT22;12727;49.934;8.656;2023-03-01T03:35:57;-1.30;99.90
24560;DHT22;12727;49.934;8.656;2023-03-01T03:38:23;-1.20;99.90
24560;DHT22;12727;49.934;8.656;2023-03-01T03:41:06;-1.20;99.90
24560;DHT22;12727;49.934;8.656;2023-03-01T03:43:33;-1.20;99.90
24560;DHT22;12727;49.934;8.656;2023-03-01T03:45:58;-1.10;99.90
24560;DHT22;12727;49.934;8.656;2023-03-01T03:48:24;-1.10;99.90
24560;DHT22;12727;49.934;8.656;2023-03-01T03:50:52;-1.10;99.90
24560;DHT22;12727;49.934;8.656;2023-03-01T03:53:19;-1.00;99.90
24560;DHT22;12727;49.934;8.656;2023-03-01T03:55:44;-1.00;99.90
24560;DHT22;12727;49.934;8.656;2023-03-01T03:58:11;-1.00;99.90
24560;DHT22;12727;49.934;8.656;2023-03-01T04:00:39;-1.00;99.90
24560;DHT22;12727;49.934;8.656;2023-03-01T04:03:06;-0.90;99.90
24560;DHT22;12727;49.934;8.656;2023-03-01T04:05:31;-0.90;99.90
24560;DHT22;12727;49.934;8.656;2023-03-01T04:07:57;-0.90;99.90
24560;DHT22;12727;49.934;8.656;2023-03-01T04:10:34;-0.90;99.90
24560;DHT22;12727;49.934;8.656;2023-03-01T04:13:02;-0.90;99.90
24560;DHT22;12727;49.934;8.656;2023-03-01T04:15:27;-1.00;99.90
24560;DHT22;12727;49.934;8.656;2023-03-01T04:17:54;-0.90;99.90
24560;DHT22;12727;49.934;8.656;2023-03-01T04:20:23;-0.90;99.90
24560;DHT22;12727;49.934;8.656;2023-03-01T04:25:22;-0.80;99.90
24560;DHT22;12727;49.934;8.656;2023-03-01T04:27:48;-0.80;99.90
24560;DHT22;12727;49.934;8.656;2023-03-01T04:30:14;-0.80;99.90
24560;DHT22;12727;49.934;8.656;2023-03-01T04:32:40;-0.80;99.90
24560;DHT22;12727;49.934;8.656;2023-03-01T04:35:06;-0.80;99.90
24560;DHT22;12727;49.934;8.656;2023-03-01T04:37:32;-0.80;99.90
24560;DHT22;12727;49.934;8.656;2023-03-01T04:39:57;-0.70;99.90
24560;DHT22;12727;49.934;8.656;2023-03-01T04:42:23;-0.70;99.90
24560;DHT22;12727;49.934;8.656;2023-03-01T04:44:49;-0.80;99.90
24560;DHT22;12727;49.934;8.656;2023-03-01T04:47:16;-0.80;99.90
24560;DHT22;12727;49.934;8.656;2023-03-01T04:49:42;-0.70;99.90
24560;DHT22;12727;49.934;8.656;2023-03-01T04:52:08;-0.80;99.90
24560;DHT22;12727;49.934;8.656;2023-03-01T04:54:35;-0.80;99.90
24560;DHT22;12727;49.934;8.656;2023-03-01T04:57:02;-0.70;99.90
24560;DHT22;12727;49.934;8.656;2023-03-01T04:59:28;-0.70;99.90
24560;DHT22;12727;49.934;8.656;2023-03-01T05:01:55;-0.70;99.90
24560;DHT22;12727;49.934;8.656;2023-03-01T05:04:22;-0.80;99.90
24560;DHT22;12727;49.934;8.656;2023-03-01T05:06:48;-0.70;99.90
24560;DHT22;12727;49.934;8.656;2023-03-01T05:09:14;-0.80;99.90
24560;DHT22;12727;49.934;8.656;2023-03-01T05:11:39;-0.70;99.90
24560;DHT22;12727;49.934;8.656;2023-03-01T05:14:06;-0.70;99.90
24560;DHT22;12727;49.934;8.656;2023-03-01T05:16:33;-0.70;99.90
24560;DHT22;12727;49.934;8.656;2023-03-01T05:18:59;-0.70;99.90
24560;DHT22;12727;49.934;8.656;2023-03-01T05:21:25;-0.70;99.90
24560;DHT22;12727;49.934;8.656;2023-03-01T05:23:51;-0.70;99.90
24560;DHT22;12727;49.934;8.656;2023-03-01T05:26:19;-0.70;99.90
24560;DHT22;12727;49.934;8.656;2023-03-01T05:28:45;-0.70;99.90
24560;DHT22;12727;49.934;8.656;2023-03-01T05:31:10;-0.60;99.90
24560;DHT22;12727;49.934;8.656;2023-03-01T05:33:40;-0.60;99.90
24560;DHT22;12727;49.934;8.656;2023-03-01T05:36:07;-0.60;99.90
24560;DHT22;12727;49.934;8.656;2023-03-01T05:38:34;-0.60;99.90
24560;DHT22;12727;49.934;8.656;2023-03-01T05:40:59;-0.60;99.90
24560;DHT22;12727;49.934;8.656;2023-03-01T05:43:25;-0.60;99.90
24560;DHT22;12727;49.934;8.656;2023-03-01T05:45:50;-0.60;99.90
24560;DHT22;12727;49.934;8.656;2023-03-01T05:48:16;-0.60;99.90
24560;DHT22;12727;49.934;8.656;2023-03-01T05:50:45;-0.60;99.90
24560;DHT22;12727;49.934;8.656;2023-03-01T05:53:17;-0.60;99.90
24560;DHT22;12727;49.934;8.656;2023-03-01T05:55:45;-0.60;99.90
24560;DHT22;12727;49.934;8.656;2023-03-01T05:58:15;-0.60;99.90
24560;DHT22;12727;49.934;8.656;2023-03-01T06:00:43;-0.70;99.90
24560;DHT22;12727;49.934;8.656;2023-03-01T06:03:11;-0.70;99.90
24560;DHT22;12727;49.934;8.656;2023-03-01T06:05:37;-0.70;99.90
24560;DHT22;12727;49.934;8.656;2023-03-01T06:08:04;-0.80;99.90
24560;DHT22;12727;49.934;8.656;2023-03-01T06:10:30;-0.80;99.90
24560;DHT22;12727;49.934;8.656;2023-03-01T06:12:56;-0.80;99.90
24560;DHT22;12727;49.934;8.656;2023-03-01T06:15:22;-0.80;99.90
24560;DHT22;12727;49.934;8.656;2023-03-01T06:17:48;-0.80;99.90
24560;DHT22;12727;49.934;8.656;2023-03-01T06:20:17;-0.80;99.90
24560;DHT22;12727;49.934;8.656;2023-03-01T06:22:43;-0.90;99.90
24560;DHT22;12727;49.934;8.656;2023-03-01T06:25:10;-0.90;99.90
24560;DHT22;12727;49.934;8.656;2023-03-01T06:27:39;-0.80;99.90
24560;DHT22;12727;49.934;8.656;2023-03-01T06:30:05;-0.80;99.90
24560;DHT22;12727;49.934;8.656;2023-03-01T06:32:32;-0.70;99.90
24560;DHT22;12727;49.934;8.656;2023-03-01T06:34:57;-0.70;99.90
24560;DHT22;12727;49.934;8.656;2023-03-01T06:37:26;-0.70;99.90
24560;DHT22;12727;49.934;8.656;2023-03-01T06:39:51;-0.50;99.90
24560;DHT22;12727;49.934;8.656;2023-03-01T06:42:17;-0.40;99.90
24560;DHT22;12727;49.934;8.656;2023-03-01T06:44:44;-0.20;99.90
24560;DHT22;12727;49.934;8.656;2023-03-01T06:47:09;0.00;99.90
24560;DHT22;12727;49.934;8.656;2023-03-01T06:49:35;0.20;99.90
24560;DHT22;12727;49.934;8.656;2023-03-01T06:52:00;0.30;99.90
24560;DHT22;12727;49.934;8.656;2023-03-01T06:54:26;0.30;99.90
24560;DHT22;12727;49.934;8.656;2023-03-01T06:56:51;0.20;99.90
24560;DHT22;12727;49.934;8.656;2023-03-01T06:59:17;0.40;99.90
24560;DHT22;12727;49.934;8.656;2023-03-01T07:01:43;0.40;99.90
24560;DHT22;12727;49.934;8.656;2023-03-01T07:04:10;0.40;99.90
24560;DHT22;12727;49.934;8.656;2023-03-01T07:06:35;0.30;99.90
24560;DHT22;12727;49.934;8.656;2023-03-01T07:09:01;0.30;99.90
24560;DHT22;12727;49.934;8.656;2023-03-01T07:11:27;0.20;99.90
24560;DHT22;12727;49.934;8.656;2023-03-01T07:13:52;0.30;99.90
24560;DHT22;12727;49.934;8.656;2023-03-01T07:16:18;0.30;99.90
24560;DHT22;12727;49.934;8.656;2023-03-01T07:18:45;0.50;99.90
24560;DHT22;12727;49.934;8.656;2023-03-01T07:21:13;0.80;99.90
24560;DHT22;12727;49.934;8.656;2023-03-01T07:23:39;1.20;99.90
24560;DHT22;12727;49.934;8.656;2023-03-01T07:26:05;1.50;99.90
24560;DHT22;12727;49.934;8.656;2023-03-01T07:28:31;1.90;99.90
24560;DHT22;12727;49.934;8.656;2023-03-01T07:31:02;2.10;99.90
24560;DHT22;12727;49.934;8.656;2023-03-01T07:33:28;2.40;99.90
24560;DHT22;12727;49.934;8.656;2023-03-01T07:35:58;2.60;99.00
24560;DHT22;12727;49.934;8.656;2023-03-01T07:38:24;2.70;98.00
24560;DHT22;12727;49.934;8.656;2023-03-01T07:40:50;2.80;97.80
24560;DHT22;12727;49.934;8.656;2023-03-01T07:43:15;2.90;96.90
24560;DHT22;12727;49.934;8.656;2023-03-01T07:45:41;2.90;95.40
24560;DHT22;12727;49.934;8.656;2023-03-01T07:48:06;2.90;96.50
24560;DHT22;12727;49.934;8.656;2023-03-01T07:50:32;3.30;95.70
24560;DHT22;12727;49.934;8.656;2023-03-01T07:52:57;3.40;95.80
24560;DHT22;12727;49.934;8.656;2023-03-01T07:55:23;3.40;94.90
24560;DHT22;12727;49.934;8.656;2023-03-01T07:57:49;3.40;95.20
24560;DHT22;12727;49.934;8.656;2023-03-01T08:00:14;3.60;95.50
24560;DHT22;12727;49.934;8.656;2023-03-01T08:02:40;3.60;94.10
24560;DHT22;12727;49.934;8.656;2023-03-01T08:05:08;3.90;94.10
24560;DHT22;12727;49.934;8.656;2023-03-01T08:07:34;4.20;94.30
24560;DHT22;12727;49.934;8.656;2023-03-01T08:10:00;4.40;93.60
24560;DHT22;12727;49.934;8.656;2023-03-01T08:12:25;4.50;92.30
24560;DHT22;12727;49.934;8.656;2023-03-01T08:14:52;4.30;91.30
24560;DHT22;12727;49.934;8.656;2023-03-01T08:17:18;4.10;92.30
24560;DHT22;12727;49.934;8.656;2023-03-01T08:19:44;4.10;91.70
24560;DHT22;12727;49.934;8.656;2023-03-01T08:22:10;4.10;92.30
24560;DHT22;12727;49.934;8.656;2023-03-01T08:24:35;4.40;91.90
24560;DHT22;12727;49.934;8.656;2023-03-01T08:27:01;4.60;90.40
24560;DHT22;12727;49.934;8.656;2023-03-01T08:29:31;4.50;88.10
24560;DHT22;12727;49.934;8.656;2023-03-01T08:31:58;4.30;90.50
24560;DHT22;12727;49.934;8.656;2023-03-01T08:34:23;4.60;91.30
24560;DHT22;12727;49.934;8.656;2023-03-01T08:36:49;4.90;91.20
24560;DHT22;12727;49.934;8.656;2023-03-01T08:39:18;5.30;89.70
24560;DHT22;12727;49.934;8.656;2023-03-01T08:41:45;5.70;89.50
24560;DHT22;12727;49.934;8.656;2023-03-01T08:44:13;5.30;86.60
24560;DHT22;12727;49.934;8.656;2023-03-01T08:46:40;5.60;89.70
24560;DHT22;12727;49.934;8.656;2023-03-01T08:49:08;5.80;83.30
24560;DHT22;12727;49.934;8.656;2023-03-01T08:51:34;5.60;86.00
24560;DHT22;12727;49.934;8.656;2023-03-01T08:54:07;5.90;82.60
24560;DHT22;12727;49.934;8.656;2023-03-01T08:56:35;6.00;83.10
24560;DHT22;12727;49.934;8.656;2023-03-01T08:59:00;6.00;82.50
24560;DHT22;12727;49.934;8.656;2023-03-01T09:01:26;6.10;80.70
24560;DHT22;12727;49.934;8.656;2023-03-01T09:03:52;6.30;78.60
24560;DHT22;12727;49.934;8.656;2023-03-01T09:06:18;6.20;81.50
24560;DHT22;12727;49.934;8.656;2023-03-01T09:08:45;6.10;78.10
24560;DHT22;12727;49.934;8.656;2023-03-01T09:11:14;6.30;79.80
24560;DHT22;12727;49.934;8.656;2023-03-01T09:13:40;6.60;79.50
24560;DHT22;12727;49.934;8.656;2023-03-01T09:16:07;7.10;79.10
24560;DHT22;12727;49.934;8.656;2023-03-01T09:18:33;7.60;75.60
24560;DHT22;12727;49.934;8.656;2023-03-01T09:21:02;7.40;74.60
24560;DHT22;12727;49.934;8.656;2023-03-01T09:23:33;6.90;76.20
24560;DHT22;12727;49.934;8.656;2023-03-01T09:25:59;7.30;74.60
24560;DHT22;12727;49.934;8.656;2023-03-01T09:28:25;8.10;73.00
24560;DHT22;12727;49.934;8.656;2023-03-01T09:30:52;8.20;72.50
24560;DHT22;12727;49.934;8.656;2023-03-01T09:33:17;8.60;71.00
24560;DHT22;12727;49.934;8.656;2023-03-01T09:35:43;8.70;68.70
24560;DHT22;12727;49.934;8.656;2023-03-01T09:38:13;8.60;69.50
24560;DHT22;12727;49.934;8.656;2023-03-01T09:40:43;8.50;69.10
24560;DHT22;12727;49.934;8.656;2023-03-01T09:46:13;8.80;67.10
24560;DHT22;12727;49.934;8.656;2023-03-01T09:51:26;7.60;70.40
24560;DHT22;12727;49.934;8.656;2023-03-01T09:53:52;7.70;70.80
24560;DHT22;12727;49.934;8.656;2023-03-01T09:56:24;8.10;69.30
24560;DHT22;12727;49.934;8.656;2023-03-01T09:59:03;8.30;68.60
24560;DHT22;12727;49.934;8.656;2023-03-01T10:09:53;9.80;65.10
24560;DHT22;12727;49.934;8.656;2023-03-01T10:12:22;9.80;63.70
24560;DHT22;12727;49.934;8.656;2023-03-01T10:20:26;9.10;64.20
24560;DHT22;12727;49.934;8.656;2023-03-01T10:22:52;9.30;64.50
24560;DHT22;12727;49.934;8.656;2023-03-01T10:25:47;9.90;63.20
24560;DHT22;12727;49.934;8.656;2023-03-01T10:31:14;10.00;64.30
24560;DHT22;12727;49.934;8.656;2023-03-01T10:33:41;10.60;63.30
24560;DHT22;12727;49.934;8.656;2023-03-01T10:36:07;10.40;60.30
24560;DHT22;12727;49.934;8.656;2023-03-01T10:38:49;10.40;60.40
24560;DHT22;12727;49.934;8.656;2023-03-01T10:41:17;10.50;59.70
24560;DHT22;12727;49.934;8.656;2023-03-01T10:43:51;10.10;61.00
24560;DHT22;12727;49.934;8.656;2023-03-01T10:46:34;10.40;59.30
24560;DHT22;12727;49.934;8.656;2023-03-01T10:49:07;10.60;59.20
24560;DHT22;12727;49.934;8.656;2023-03-01T10:51:32;10.70;58.20
24560;DHT22;12727;49.934;8.656;2023-03-01T10:53:58;10.40;59.30
24560;DHT22;12727;49.934;8.656;2023-03-01T10:56:24;10.30;58.70
24560;DHT22;12727;49.934;8.656;2023-03-01T10:58:58;10.50;59.70
24560;DHT22;12727;49.934;8.656;2023-03-01T11:01:29;10.60;59.00
24560;DHT22;12727;49.934;8.656;2023-03-01T11:04:23;10.70;58.20
24560;DHT22;12727;49.934;8.656;2023-03-01T11:06:58;10.60;57.20
24560;DHT22;12727;49.934;8.656;2023-03-01T11:09:24;10.80;58.10
24560;DHT22;12727;49.934;8.656;2023-03-01T11:11:58;11.00;58.60
24560;DHT22;12727;49.934;8.656;2023-03-01T11:14:27;11.40;56.80
24560;DHT22;12727;49.934;8.656;2023-03-01T11:17:21;11.20;58.40
24560;DHT22;12727;49.934;8.656;2023-03-01T11:22:54;11.30;57.10
24560;DHT22;12727;49.934;8.656;2023-03-01T11:25:24;11.30;57.20
24560;DHT22;12727;49.934;8.656;2023-03-01T11:27:52;11.40;56.30
24560;DHT22;12727;49.934;8.656;2023-03-01T11:30:23;10.70;56.70
24560;DHT22;12727;49.934;8.656;2023-03-01T11:33:03;9.20;58.70
24560;DHT22;12727;49.934;8.656;2023-03-01T11:35:32;8.50;62.40
24560;DHT22;12727;49.934;8.656;2023-03-01T11:38:23;8.00;65.00
24560;DHT22;12727;49.934;8.656;2023-03-01T11:54:41;7.10;65.30
24560;DHT22;12727;49.934;8.656;2023-03-01T12:08:10;7.60;64.60
24560;DHT22;12727;49.934;8.656;2023-03-01T12:10:53;7.40;65.00
24560;DHT22;12727;49.934;8.656;2023-03-01T12:22:17;7.30;65.10
24560;DHT22;12727;49.934;8.656;2023-03-01T12:25:18;7.40;63.40
24560;DHT22;12727;49.934;8.656;2023-03-01T12:31:16;7.50;64.30
24560;DHT22;12727;49.934;8.656;2023-03-01T12:34:18;7.60;63.20
24560;DHT22;12727;49.934;8.656;2023-03-01T12:36:45;7.60;62.90
24560;DHT22;12727;49.934;8.656;2023-03-01T12:45:45;7.90;61.30
24560;DHT22;12727;49.934;8.656;2023-03-01T12:48:40;7.70;62.40
24560;DHT22;12727;49.934;8.656;2023-03-01T12:51:12;8.00;62.90
24560;DHT22;12727;49.934;8.656;2023-03-01T12:53:46;7.90;61.30
24560;DHT22;12727;49.934;8.656;2023-03-01T12:56:16;7.80;60.30
24560;DHT22;12727;49.934;8.656;2023-03-01T13:04:31;7.90;62.90
24560;DHT22;12727;49.934;8.656;2023-03-01T13:15:32;7.90;63.70
24560;DHT22;12727;49.934;8.656;2023-03-01T13:18:27;7.90;63.00
24560;DHT22;12727;49.934;8.656;2023-03-01T13:20:58;7.90;63.00
24560;DHT22;12727;49.934;8.656;2023-03-01T13:23:28;7.90;62.60
24560;DHT22;12727;49.934;8.656;2023-03-01T13:31:03;7.90;61.50
24560;DHT22;12727;49.934;8.656;2023-03-01T13:35:56;7.80;62.50
24560;DHT22;12727;49.934;8.656;2023-03-01T13:38:45;8.00;63.00
24560;DHT22;12727;49.934;8.656;2023-03-01T13:41:16;7.90;61.10
24560;DHT22;12727;49.934;8.656;2023-03-01T13:43:44;8.00;62.00
24560;DHT22;12727;49.934;8.656;2023-03-01T13:46:20;8.00;62.00
24560;DHT22;12727;49.934;8.656;2023-03-01T13:48:50;8.10;61.00
24560;DHT22;12727;49.934;8.656;2023-03-01T13:51:23;8.10;61.40
24560;DHT22;12727;49.934;8.656;2023-03-01T13:53:51;8.30;61.80
24560;DHT22;12727;49.934;8.656;2023-03-01T13:56:26;8.30;61.20
24560;DHT22;12727;49.934;8.656;2023-03-01T13:59:05;8.20;61.20
24560;DHT22;12727;49.934;8.656;2023-03-01T14:01:34;8.30;62.70
24560;DHT22;12727;49.934;8.656;2023-03-01T14:04:02;8.30;60.70
24560;DHT22;12727;49.934;8.656;2023-03-01T14:06:30;8.30;60.60
24560;DHT22;12727;49.934;8.656;2023-03-01T14:09:05;8.30;61.50
24560;DHT22;12727;49.934;8.656;2023-03-01T14:17:16;8.30;60.30
24560;DHT22;12727;49.934;8.656;2023-03-01T14:19:45;8.20;60.40
24560;DHT22;12727;49.934;8.656;2023-03-01T14:22:23;8.20;60.20
24560;DHT22;12727;49.934;8.656;2023-03-01T14:27:20;8.30;60.50
24560;DHT22;12727;49.934;8.656;2023-03-01T14:30:00;8.20;61.00
24560;DHT22;12727;49.934;8.656;2023-03-01T14:32:29;8.20;60.30
24560;DHT22;12727;49.934;8.656;2023-03-01T14:34:56;8.20;60.80
24560;DHT22;12727;49.934;8.656;2023-03-01T14:37:27;8.20;61.20
24560;DHT22;12727;49.934;8.656;2023-03-01T14:39:53;8.20;60.60
24560;DHT22;12727;49.934;8.656;2023-03-01T14:42:21;8.20;61.50
24560;DHT22;12727;49.934;8.656;2023-03-01T14:44:51;8.10;61.70
24560;DHT22;12727;49.934;8.656;2023-03-01T14:47:38;8.20;62.50
24560;DHT22;12727;49.934;8.656;2023-03-01T14:50:07;8.20;62.50
24560;DHT22;12727;49.934;8.656;2023-03-01T14:52:40;8.20;63.20
24560;DHT22;12727;49.934;8.656;2023-03-01T14:55:20;8.20;61.70
24560;DHT22;12727;49.934;8.656;2023-03-01T14:57:50;8.20;62.00
24560;DHT22;12727;49.934;8.656;2023-03-01T15:00:28;8.10;62.50
24560;DHT22;12727;49.934;8.656;2023-03-01T15:02:56;8.10;61.70
24560;DHT22;12727;49.934;8.656;2023-03-01T15:05:32;8.10;61.90
24560;DHT22;12727;49.934;8.656;2023-03-01T15:08:01;8.10;62.70
24560;DHT22;12727;49.934;8.656;2023-03-01T15:10:32;8.10;61.70
24560;DHT22;12727;49.934;8.656;2023-03-01T15:13:20;8.10;62.70
24560;DHT22;12727;49.934;8.656;2023-03-01T15:15:51;8.10;62.80
24560;DHT22;12727;49.934;8.656;2023-03-01T15:18:22;8.10;62.90
24560;DHT22;12727;49.934;8.656;2023-03-01T15:20:49;8.10;62.40
24560;DHT22;12727;49.934;8.656;2023-03-01T15:23:27;8.10;61.90
24560;DHT22;12727;49.934;8.656;2023-03-01T15:25:55;8.00;63.10
24560;DHT22;12727;49.934;8.656;2023-03-01T15:28:36;8.10;63.10
24560;DHT22;12727;49.934;8.656;2023-03-01T15:31:23;8.10;64.30
24560;DHT22;12727;49.934;8.656;2023-03-01T15:33:49;8.10;62.20
24560;DHT22;12727;49.934;8.656;2023-03-01T15:36:36;8.10;62.40
24560;DHT22;12727;49.934;8.656;2023-03-01T15:39:03;8.10;63.40
24560;DHT22;12727;49.934;8.656;2023-03-01T15:41:46;8.10;63.20
24560;DHT22;12727;49.934;8.656;2023-03-01T15:44:26;8.10;61.90
24560;DHT22;12727;49.934;8.656;2023-03-01T15:46:52;8.10;62.10
24560;DHT22;12727;49.934;8.656;2023-03-01T15:49:40;8.10;62.20
24560;DHT22;12727;49.934;8.656;2023-03-01T15:52:17;8.00;63.00
24560;DHT22;12727;49.934;8.656;2023-03-01T15:54:44;8.00;63.00
24560;DHT22;12727;49.934;8.656;2023-03-01T15:57:14;8.00;63.60
24560;DHT22;12727;49.934;8.656;2023-03-01T15:59:40;7.90;64.90
24560;DHT22;12727;49.934;8.656;2023-03-01T16:02:11;7.80;64.60
24560;DHT22;12727;49.934;8.656;2023-03-01T16:04:39;7.80;64.20
24560;DHT22;12727;49.934;8.656;2023-03-01T16:07:05;7.70;63.50
24560;DHT22;12727;49.934;8.656;2023-03-01T16:09:31;7.70;64.30
24560;DHT22;12727;49.934;8.656;2023-03-01T16:11:59;7.60;65.10
24560;DHT22;12727;49.934;8.656;2023-03-01T16:14:27;7.60;65.50
24560;DHT22;12727;49.934;8.656;2023-03-01T16:16:53;7.60;65.30
24560;DHT22;12727;49.934;8.656;2023-03-01T16:19:18;7.60;65.60
24560;DHT22;12727;49.934;8.656;2023-03-01T16:21:44;7.50;65.60
24560;DHT22;12727;49.934;8.656;2023-03-01T16:24:12;7.50;65.80
24560;DHT22;12727;49.934;8.656;2023-03-01T16:26:38;7.40;66.30
24560;DHT22;12727;49.934;8.656;2023-03-01T16:29:04;7.30;67.30
24560;DHT22;12727;49.934;8.656;2023-03-01T16:31:30;7.30;67.30
24560;DHT22;12727;49.934;8.656;2023-03-01T16:33:58;7.20;67.80
24560;DHT22;12727;49.934;8.656;2023-03-01T16:36:25;7.20;67.20
24560;DHT22;12727;49.934;8.656;2023-03-01T16:38:54;7.10;67.00
24560;DHT22;12727;49.934;8.656;2023-03-01T16:41:22;7.00;67.00
24560;DHT22;12727;49.934;8.656;2023-03-01T16:43:49;7.10;66.80
24560;DHT22;12727;49.934;8.656;2023-03-01T16:46:24;7.00;67.20
24560;DHT22;12727;49.934;8.656;2023-03-01T16:48:51;6.90;68.50
24560;DHT22;12727;49.934;8.656;2023-03-01T16:51:19;6.80;68.20
24560;DHT22;12727;49.934;8.656;2023-03-01T16:53:45;6.70;68.60
24560;DHT22;12727;49.934;8.656;2023-03-01T16:56:12;6.60;69.20
24560;DHT22;12727;49.934;8.656;2023-03-01T16:58:39;6.50;69.50
24560;DHT22;12727;49.934;8.656;2023-03-01T17:01:18;6.40;70.20
24560;DHT22;12727;49.934;8.656;2023-03-01T17:03:45;6.30;70.40
24560;DHT22;12727;49.934;8.656;2023-03-01T17:06:19;6.20;71.10
24560;DHT22;12727;49.934;8.656;2023-03-01T17:08:45;6.20;70.90
24560;DHT22;12727;49.934;8.656;2023-03-01T17:11:16;6.10;71.30
24560;DHT22;12727;49.934;8.656;2023-03-01T17:13:43;6.00;72.10
24560;DHT22;12727;49.934;8.656;2023-03-01T17:16:11;5.90;72.90
24560;DHT22;12727;49.934;8.656;2023-03-01T17:18:38;5.80;72.50
24560;DHT22;12727;49.934;8.656;2023-03-01T17:21:04;5.80;72.60
24560;DHT22;12727;49.934;8.656;2023-03-01T17:23:32;5.80;72.80
24560;DHT22;12727;49.934;8.656;2023-03-01T17:25:58;5.60;73.60
24560;DHT22;12727;49.934;8.656;2023-03-01T17:28:28;5.60;73.40
24560;DHT22;12727;49.934;8.656;2023-03-01T17:30:54;5.50;73.80
24560;DHT22;12727;49.934;8.656;2023-03-01T17:33:21;5.50;73.80
24560;DHT22;12727;49.934;8.656;2023-03-01T17:35:46;5.50;74.00